Time;durP1;ratioP1;P1;durP2;ratioP2;P2;SDS_P1;SDS_P2;PMS_P1;PMS_P2;Temp;Humidity;BMP_temperature;BMP_pressure;BME280_temperature;BME280_humidity;BME280_pressure;Samples;Min_cycle;Max_cycle;Signal;HPM_P1;HPM_P2
2023/04/26 00:02:12;;;;;;;12.43;4.60;;;4.40;99.90;;;;;;5012268;28;38131;-78
2023/04/26 00:04:38;;;;;;;12.77;4.27;;;4.40;99.90;;;;;;5023882;28;38938;-78
2023/04/26 00:07:05;;;;;;;8.87;3.90;;;4.30;99.90;;;;;;5023431;28;38525;-79
2023/04/26 00:09:31;;;;;;;10.97;4.60;;;4.30;99.90;;;;;;5058817;28;36575;-79
2023/04/26 00:11:58;;;;;;;12.93;4.57;;;4.20;99.90;;;;;;5039839;28;36020;-79
2023/04/26 00:14:24;;;;;;;11.27;4.40;;;4.20;99.90;;;;;;5032798;28;37620;-79
2023/04/26 00:16:50;;;;;;;17.07;4.17;;;4.10;99.90;;;;;;5027016;28;38059;-79
2023/04/26 00:19:17;;;;;;;9.40;4.77;;;4.00;99.90;;;;;;5029557;28;37835;-79
2023/04/26 00:21:43;;;;;;;13.10;4.37;;;4.00;99.90;;;;;;5024864;28;37828;-78
2023/04/26 00:24:09;;;;;;;11.57;4.47;;;4.00;99.90;;;;;;5037352;28;38820;-78
2023/04/26 00:26:35;;;;;;;14.97;4.30;;;4.00;99.90;;;;;;5030278;28;40061;-79
2023/04/26 00:29:03;;;;;;;14.77;4.50;;;4.00;99.90;;;;;;5026019;28;36577;-78
2023/04/26 00:31:29;;;;;;;10.40;4.30;;;4.00;99.90;;;;;;5028297;28;35830;-78
2023/04/26 00:33:55;;;;;;;9.70;4.97;;;4.00;99.90;;;;;;5063346;28;39034;-78
2023/04/26 00:36:22;;;;;;;10.77;5.47;;;4.10;99.90;;;;;;5052306;28;37205;-78
2023/04/26 00:38:48;;;;;;;10.63;4.10;;;4.10;99.90;;;;;;5021315;28;37985;-79
2023/04/26 00:41:15;;;;;;;9.83;4.40;;;4.00;99.90;;;;;;5020907;28;37328;-79
2023/04/26 00:43:41;;;;;;;9.27;4.47;;;4.00;99.90;;;;;;5014642;28;37425;-78
2023/04/26 00:46:08;;;;;;;11.40;4.87;;;4.00;99.90;;;;;;5018219;28;38118;-78
2023/04/26 00:48:37;;;;;;;11.60;4.77;;;3.90;99.90;;;;;;5024091;28;37693;-79
2023/04/26 00:51:04;;;;;;;10.27;4.80;;;3.90;99.90;;;;;;5027528;28;37464;-79
2023/04/26 00:53:33;;;;;;;8.63;4.60;;;3.80;99.90;;;;;;5030055;28;37895;-79
2023/04/26 00:55:59;;;;;;;15.20;5.13;;;3.80;99.90;;;;;;5028228;28;38093;-79
2023/04/26 00:58:26;;;;;;;12.07;5.30;;;3.80;99.90;;;;;;5028847;28;36897;-79
2023/04/26 01:03:29;;;;;;;14.10;6.20;;;3.70;99.90;;;;;;5136058;22;21383;-76
2023/04/26 01:05:55;;;;;;;10.97;5.43;;;3.80;99.90;;;;;;5033084;28;38157;-74
2023/04/26 01:08:22;;;;;;;17.70;5.90;;;3.80;99.90;;;;;;5038099;28;36349;-75
2023/04/26 01:10:49;;;;;;;12.30;4.73;;;3.80;99.90;;;;;;5036982;28;36970;-75
2023/04/26 01:13:15;;;;;;;16.73;5.47;;;3.90;99.90;;;;;;5037533;28;38941;-75
2023/04/26 01:15:46;;;;;;;12.53;5.37;;;3.90;99.90;;;;;;5044226;28;38535;-76
2023/04/26 01:18:13;;;;;;;10.30;5.50;;;3.90;99.90;;;;;;5049038;28;36282;-75
2023/04/26 01:20:40;;;;;;;11.67;5.53;;;4.00;99.90;;;;;;5037896;28;37519;-75
2023/04/26 01:23:07;;;;;;;11.67;5.83;;;3.90;99.90;;;;;;5047120;28;39027;-75
2023/04/26 01:25:34;;;;;;;11.87;5.07;;;3.90;99.90;;;;;;5050533;28;39632;-75
2023/04/26 01:28:00;;;;;;;10.03;4.77;;;3.90;99.90;;;;;;5045695;28;38021;-75
2023/04/26 01:30:26;;;;;;;12.43;5.47;;;4.00;99.90;;;;;;5044525;28;37333;-75
2023/04/26 01:32:53;;;;;;;13.33;6.10;;;4.00;99.90;;;;;;5054740;28;38776;-75
2023/04/26 01:35:19;;;;;;;11.10;5.47;;;4.00;99.90;;;;;;5056461;28;39917;-75
2023/04/26 01:37:45;;;;;;;14.77;6.90;;;4.00;99.90;;;;;;5053578;28;37640;-75
2023/04/26 01:40:12;;;;;;;12.93;6.40;;;4.00;99.90;;;;;;5053213;28;36680;-75
2023/04/26 01:42:38;;;;;;;18.23;7.60;;;4.10;99.90;;;;;;5043683;28;38164;-75
2023/04/26 01:45:05;;;;;;;12.70;7.33;;;4.10;99.90;;;;;;5046138;28;37196;-75
2023/04/26 01:47:31;;;;;;;16.73;7.23;;;4.10;99.90;;;;;;5050404;28;37678;-75
2023/04/26 01:49:57;;;;;;;16.83;6.50;;;4.10;99.90;;;;;;5054166;28;36818;-75
2023/04/26 01:52:25;;;;;;;14.03;7.57;;;4.10;99.90;;;;;;5042276;28;37909;-75
2023/04/26 01:54:51;;;;;;;14.73;7.00;;;4.00;99.90;;;;;;5043753;28;40652;-75
2023/04/26 01:57:17;;;;;;;15.10;7.37;;;4.10;99.90;;;;;;5042431;28;39356;-76
2023/04/26 01:59:43;;;;;;;14.80;8.10;;;4.00;99.90;;;;;;5044736;28;37728;-75
2023/04/26 02:02:09;;;;;;;13.23;8.13;;;4.00;99.90;;;;;;5037302;28;37728;-75
2023/04/26 02:04:35;;;;;;;17.20;8.03;;;4.00;99.90;;;;;;5039715;28;37067;-75
2023/04/26 02:07:01;;;;;;;15.23;7.77;;;4.00;99.90;;;;;;5042157;28;37547;-75
2023/04/26 02:09:27;;;;;;;17.43;7.60;;;4.00;99.90;;;;;;5039063;28;36573;-75
2023/04/26 02:11:53;;;;;;;13.67;8.00;;;3.90;99.90;;;;;;5043924;28;37792;-75
2023/04/26 02:14:19;;;;;;;21.63;8.93;;;3.90;99.90;;;;;;5043063;28;38339;-75
2023/04/26 02:16:45;;;;;;;16.27;8.40;;;3.90;99.90;;;;;;5044831;28;37872;-75
2023/04/26 02:19:12;;;;;;;14.37;8.57;;;3.90;99.90;;;;;;5050046;28;35933;-75
2023/04/26 02:21:58;;;;;;;13.93;8.50;;;3.90;99.90;;;;;;5053265;28;38644;-75
2023/04/26 02:24:24;;;;;;;17.70;8.50;;;3.90;99.90;;;;;;5052366;28;36854;-75
2023/04/26 02:26:51;;;;;;;17.77;8.57;;;3.90;99.90;;;;;;5053354;28;38520;-77
2023/04/26 02:29:18;;;;;;;14.63;8.23;;;3.80;99.90;;;;;;5046617;28;36176;-76
2023/04/26 02:31:44;;;;;;;12.83;7.67;;;3.80;99.90;;;;;;5045741;28;40152;-75
2023/04/26 02:34:11;;;;;;;18.63;8.37;;;3.80;99.90;;;;;;5044948;28;37404;-76
2023/04/26 02:36:37;;;;;;;16.47;8.03;;;3.80;99.90;;;;;;5051516;28;37545;-77
2023/04/26 02:39:03;;;;;;;16.07;8.27;;;3.70;99.90;;;;;;5055871;28;38270;-76
2023/04/26 02:41:31;;;;;;;14.07;8.80;;;3.70;99.90;;;;;;5054985;28;38916;-76
2023/04/26 02:43:57;;;;;;;15.40;8.27;;;3.70;99.90;;;;;;5050934;28;38797;-76
2023/04/26 02:46:24;;;;;;;15.07;7.93;;;3.60;99.90;;;;;;5031391;28;36888;-75
2023/04/26 02:48:50;;;;;;;14.43;7.80;;;3.60;99.90;;;;;;5043902;28;37487;-76
2023/04/26 02:51:16;;;;;;;15.93;7.00;;;3.50;99.90;;;;;;5048917;28;39973;-76
2023/04/26 02:53:42;;;;;;;14.07;7.40;;;3.50;99.90;;;;;;5047391;28;38277;-76
2023/04/26 02:56:08;;;;;;;14.37;7.47;;;3.50;99.90;;;;;;5044693;28;38713;-76
2023/04/26 02:58:34;;;;;;;18.30;7.80;;;3.50;99.90;;;;;;5059115;28;35510;-76
2023/04/26 03:01:00;;;;;;;13.77;8.13;;;3.50;99.90;;;;;;5045805;28;38316;-76
2023/04/26 03:03:27;;;;;;;15.13;8.03;;;3.50;99.90;;;;;;5045431;28;36921;-76
2023/04/26 03:05:53;;;;;;;15.00;7.60;;;3.60;99.90;;;;;;5044183;28;36672;-76
2023/04/26 03:08:19;;;;;;;15.87;8.30;;;3.60;99.90;;;;;;5049263;28;36604;-76
2023/04/26 03:10:45;;;;;;;20.23;9.00;;;3.60;99.90;;;;;;5042689;28;38973;-75
2023/04/26 03:13:12;;;;;;;15.37;7.47;;;3.50;99.90;;;;;;5046522;28;37658;-76
2023/04/26 03:15:38;;;;;;;13.30;7.67;;;3.50;99.90;;;;;;5039755;28;36617;-76
2023/04/26 03:18:11;;;;;;;16.37;7.97;;;3.50;99.90;;;;;;5044324;28;37327;-76
2023/04/26 03:20:37;;;;;;;12.63;7.50;;;3.50;99.90;;;;;;5041108;28;38691;-76
2023/04/26 03:23:03;;;;;;;18.80;8.30;;;3.50;99.90;;;;;;5045487;28;38619;-76
2023/04/26 03:25:29;;;;;;;20.53;8.60;;;3.50;99.90;;;;;;5044176;28;38462;-74
2023/04/26 03:27:55;;;;;;;19.53;9.67;;;3.50;99.90;;;;;;5043412;28;37039;-76
2023/04/26 03:30:22;;;;;;;17.60;8.87;;;3.50;99.90;;;;;;5038195;28;38077;-77
2023/04/26 03:32:48;;;;;;;24.70;8.70;;;3.60;99.90;;;;;;5046996;28;38639;-76
2023/04/26 03:35:14;;;;;;;16.37;9.67;;;3.60;99.90;;;;;;5045826;28;38363;-76
2023/04/26 03:37:41;;;;;;;18.90;8.60;;;3.60;99.90;;;;;;5047347;28;37032;-75
2023/04/26 03:40:08;;;;;;;20.97;8.90;;;3.70;99.90;;;;;;5043934;28;38140;-76
2023/04/26 03:42:35;;;;;;;20.47;8.07;;;3.70;99.90;;;;;;5047780;28;37427;-76
2023/04/26 03:45:04;;;;;;;30.27;10.37;;;3.80;99.90;;;;;;5049499;28;38875;-76
2023/04/26 03:47:30;;;;;;;17.80;8.20;;;3.80;99.90;;;;;;5041378;28;47304;-75
2023/04/26 03:49:57;;;;;;;19.47;8.83;;;3.90;99.90;;;;;;5044514;28;37725;-76
2023/04/26 03:52:23;;;;;;;19.67;9.90;;;3.90;99.90;;;;;;5048515;28;38425;-74
2023/04/26 03:54:50;;;;;;;15.43;8.27;;;3.80;99.90;;;;;;5048486;28;38935;-75
2023/04/26 03:57:16;;;;;;;16.97;8.40;;;3.90;99.90;;;;;;5046164;28;36302;-76
2023/04/26 03:59:42;;;;;;;16.93;9.40;;;3.90;99.90;;;;;;5050684;28;38673;-75
2023/04/26 04:02:08;;;;;;;16.20;8.93;;;3.90;99.90;;;;;;5046075;28;37415;-76
2023/04/26 04:04:34;;;;;;;17.23;8.00;;;3.90;99.90;;;;;;5044798;28;36351;-75
2023/04/26 04:07:02;;;;;;;16.20;8.70;;;4.00;99.90;;;;;;5050006;28;20049;-75
2023/04/26 04:09:28;;;;;;;18.53;9.93;;;4.10;99.90;;;;;;5064546;28;37777;-75
2023/04/26 04:11:54;;;;;;;15.83;8.87;;;4.10;99.90;;;;;;5047170;28;38607;-75
2023/04/26 04:14:20;;;;;;;17.00;7.60;;;4.20;99.90;;;;;;5045424;28;36775;-74
2023/04/26 04:16:46;;;;;;;15.67;8.10;;;4.20;99.90;;;;;;5041789;28;36910;-75
2023/04/26 04:19:12;;;;;;;17.73;8.30;;;4.30;99.90;;;;;;5044974;28;38711;-76
2023/04/26 04:21:41;;;;;;;17.83;8.33;;;4.40;99.90;;;;;;5044852;28;37286;-76
2023/04/26 04:24:07;;;;;;;16.13;7.50;;;4.40;99.90;;;;;;5048981;28;36807;-74
2023/04/26 04:26:33;;;;;;;20.17;8.77;;;4.40;99.90;;;;;;5034504;28;36235;-74
2023/04/26 04:29:07;;;;;;;16.43;7.87;;;4.40;99.90;;;;;;5051193;28;37568;-75
2023/04/26 04:31:37;;;;;;;19.97;8.20;;;4.40;99.90;;;;;;5042233;28;47245;-74
2023/04/26 04:34:03;;;;;;;16.63;8.53;;;4.40;99.90;;;;;;5041860;28;36514;-74
2023/04/26 04:36:30;;;;;;;18.17;8.87;;;4.50;99.90;;;;;;5034811;28;37226;-75
2023/04/26 04:38:56;;;;;;;18.40;8.17;;;4.50;99.90;;;;;;5037089;28;38699;-75
2023/04/26 04:41:22;;;;;;;18.63;7.73;;;4.50;99.90;;;;;;5042408;28;38103;-75
2023/04/26 04:43:48;;;;;;;18.50;8.10;;;4.60;99.90;;;;;;5036327;28;37555;-74
2023/04/26 04:46:16;;;;;;;16.07;8.73;;;4.70;99.90;;;;;;5052954;28;36214;-74
2023/04/26 04:48:43;;;;;;;16.00;8.13;;;4.70;99.90;;;;;;5043384;28;39559;-74
2023/04/26 04:51:09;;;;;;;17.03;8.47;;;4.80;99.90;;;;;;5043767;28;38258;-73
2023/04/26 04:53:35;;;;;;;20.03;8.37;;;5.00;99.90;;;;;;5042566;28;36497;-75
2023/04/26 04:56:01;;;;;;;16.93;8.43;;;5.10;99.90;;;;;;5044537;28;36958;-75
2023/04/26 04:58:27;;;;;;;18.53;8.13;;;5.20;99.90;;;;;;5040282;28;47582;-74
2023/04/26 05:00:54;;;;;;;17.77;7.90;;;5.20;99.90;;;;;;5035275;28;37250;-73
2023/04/26 05:03:21;;;;;;;16.60;7.80;;;5.30;99.90;;;;;;5040382;28;38124;-75
2023/04/26 05:05:47;;;;;;;12.80;7.80;;;5.40;99.90;;;;;;5034826;28;36927;-74
2023/04/26 05:08:16;;;;;;;17.40;7.20;;;5.40;99.90;;;;;;5044666;28;40585;-75
2023/04/26 05:10:42;;;;;;;15.93;6.77;;;5.50;99.90;;;;;;5043931;28;38446;-77
2023/04/26 05:13:08;;;;;;;13.20;6.53;;;5.60;99.90;;;;;;5039487;28;37444;-76
2023/04/26 05:15:34;;;;;;;13.67;7.23;;;5.60;99.90;;;;;;5042038;28;37208;-75
2023/04/26 05:18:00;;;;;;;10.50;6.40;;;5.70;99.90;;;;;;5039921;28;37723;-76
2023/04/26 05:20:26;;;;;;;10.57;5.93;;;5.80;99.90;;;;;;5045043;28;38033;-76
2023/04/26 05:22:53;;;;;;;13.00;5.30;;;5.90;99.90;;;;;;5040549;28;36933;-75
2023/04/26 05:25:19;;;;;;;11.23;5.67;;;6.00;99.90;;;;;;5039763;28;35780;-74
2023/04/26 05:27:45;;;;;;;12.80;5.27;;;6.10;99.90;;;;;;5043945;28;37552;-75
2023/04/26 05:30:11;;;;;;;16.43;5.60;;;6.20;99.90;;;;;;5058226;28;37217;-75
2023/04/26 05:32:37;;;;;;;12.60;4.50;;;6.40;99.90;;;;;;5044488;28;38464;-74
2023/04/26 05:35:04;;;;;;;17.83;5.33;;;6.50;99.90;;;;;;5037456;28;36017;-75
2023/04/26 05:37:30;;;;;;;8.60;4.20;;;6.60;99.90;;;;;;5042486;28;47554;-78
2023/04/26 05:39:56;;;;;;;20.17;4.37;;;6.70;99.90;;;;;;5035748;28;38633;-77
2023/04/26 05:42:22;;;;;;;8.93;4.40;;;6.80;99.90;;;;;;5043501;28;36303;-74
2023/04/26 05:44:48;;;;;;;10.67;3.77;;;6.80;99.90;;;;;;5043230;28;38508;-74
2023/04/26 05:47:15;;;;;;;8.93;4.00;;;6.90;99.90;;;;;;5042040;28;39691;-78
2023/04/26 05:49:41;;;;;;;8.13;3.10;;;7.00;99.90;;;;;;5039788;28;35643;-77
2023/04/26 05:52:07;;;;;;;4.33;2.20;;;7.10;99.90;;;;;;5039453;28;38212;-76
2023/04/26 05:54:33;;;;;;;4.90;2.10;;;7.10;99.90;;;;;;5036797;28;38522;-77
2023/04/26 05:56:59;;;;;;;6.57;2.33;;;7.20;99.90;;;;;;5039132;28;38589;-77
2023/04/26 05:59:30;;;;;;;5.57;2.57;;;7.20;99.90;;;;;;5041344;28;37221;-77
2023/04/26 06:01:56;;;;;;;8.47;2.67;;;7.20;99.90;;;;;;5048164;28;36688;-76
2023/04/26 06:04:22;;;;;;;8.00;2.70;;;7.20;99.90;;;;;;5042054;28;37006;-75
2023/04/26 06:06:48;;;;;;;7.27;2.40;;;7.20;99.90;;;;;;5042511;28;37568;-77
2023/04/26 06:09:14;;;;;;;7.77;2.73;;;7.30;99.90;;;;;;5044102;28;38798;-77
2023/04/26 06:11:43;;;;;;;6.23;2.23;;;7.20;99.90;;;;;;5046606;28;37728;-76
2023/04/26 06:14:09;;;;;;;6.73;2.23;;;7.30;99.90;;;;;;5036789;28;36748;-77
2023/04/26 06:16:35;;;;;;;3.20;1.80;;;7.30;99.90;;;;;;5047228;28;39340;-77
2023/04/26 06:19:01;;;;;;;3.70;1.87;;;7.40;99.90;;;;;;5046083;28;37828;-76
2023/04/26 06:21:27;;;;;;;4.90;1.77;;;7.40;99.90;;;;;;5043991;28;38384;-77
2023/04/26 06:23:53;;;;;;;6.80;1.67;;;7.60;99.90;;;;;;5049793;28;37113;-77
2023/04/26 06:26:20;;;;;;;7.20;2.33;;;7.60;99.90;;;;;;5048141;28;38485;-76
2023/04/26 06:28:46;;;;;;;6.00;1.90;;;7.70;99.90;;;;;;5046406;28;37191;-78
2023/04/26 06:31:12;;;;;;;5.43;2.07;;;7.70;99.90;;;;;;5040975;28;36504;-75
2023/04/26 06:33:38;;;;;;;5.93;2.00;;;7.50;99.90;;;;;;5044426;28;36037;-75
2023/04/26 06:36:04;;;;;;;6.03;1.80;;;7.40;99.90;;;;;;5041415;28;37837;-76
2023/04/26 06:38:30;;;;;;;3.13;1.30;;;7.60;99.90;;;;;;5046050;28;37471;-78
2023/04/26 06:40:56;;;;;;;3.80;1.60;;;7.90;99.90;;;;;;5043623;28;36494;-76
2023/04/26 06:43:22;;;;;;;4.13;1.40;;;8.20;99.90;;;;;;5035933;28;36104;-76
2023/04/26 06:45:48;;;;;;;6.10;1.93;;;8.40;99.90;;;;;;5043309;28;37710;-78
2023/04/26 06:48:15;;;;;;;2.83;1.40;;;8.30;99.90;;;;;;5046498;28;37945;-77
2023/04/26 06:50:41;;;;;;;5.97;1.70;;;8.40;99.90;;;;;;5037917;28;36565;-77
2023/04/26 06:53:07;;;;;;;7.93;2.03;;;8.50;99.90;;;;;;5047101;28;38066;-77
2023/04/26 06:55:33;;;;;;;5.10;1.90;;;8.50;99.90;;;;;;5046783;28;37883;-77
2023/04/26 06:58:00;;;;;;;4.23;1.43;;;8.40;99.90;;;;;;5043102;28;38341;-76
2023/04/26 07:00:26;;;;;;;5.73;1.70;;;8.30;99.90;;;;;;5036198;28;38177;-76
2023/04/26 07:02:53;;;;;;;3.20;1.50;;;8.30;99.90;;;;;;5038686;28;36911;-78
2023/04/26 07:05:19;;;;;;;3.23;1.30;;;8.50;99.90;;;;;;5040666;28;38668;-78
2023/04/26 07:07:45;;;;;;;4.67;1.40;;;8.60;99.90;;;;;;5049999;28;38019;-77
2023/04/26 07:10:12;;;;;;;4.85;1.38;;;8.60;99.90;;;;;;5041194;28;37798;-78
2023/04/26 07:12:38;;;;;;;9.20;1.52;;;8.80;99.90;;;;;;5043016;28;37315;-76
2023/04/26 07:15:05;;;;;;;5.47;1.30;;;9.00;99.90;;;;;;5048189;28;39490;-77
2023/04/26 07:17:32;;;;;;;6.45;1.98;;;9.00;99.90;;;;;;5042241;28;38631;-76
2023/04/26 07:19:58;;;;;;;6.43;1.80;;;9.30;99.90;;;;;;5043351;28;36791;-76
2023/04/26 07:22:24;;;;;;;7.75;1.40;;;9.50;99.90;;;;;;5037161;28;37166;-78
2023/04/26 07:24:50;;;;;;;5.88;1.73;;;9.70;99.90;;;;;;5036278;28;38781;-77
2023/04/26 07:27:16;;;;;;;5.90;1.50;;;10.00;99.90;;;;;;5044815;28;38037;-76
2023/04/26 07:29:42;;;;;;;3.45;1.40;;;10.20;99.90;;;;;;5046677;28;37608;-76
2023/04/26 07:32:08;;;;;;;2.58;1.20;;;10.20;99.90;;;;;;5038869;28;36460;-77
2023/04/26 07:34:34;;;;;;;2.33;1.50;;;10.10;99.90;;;;;;5042549;28;38575;-77
2023/04/26 07:37:00;;;;;;;7.93;1.50;;;10.20;99.90;;;;;;5041815;28;37581;-77
2023/04/26 07:39:26;;;;;;;3.70;1.30;;;10.20;99.90;;;;;;5055107;28;47272;-77
2023/04/26 07:41:53;;;;;;;5.32;1.77;;;10.30;99.90;;;;;;5036508;28;36981;-77
2023/04/26 07:44:19;;;;;;;2.63;1.40;;;10.20;99.90;;;;;;5037201;28;37868;-76
2023/04/26 07:46:45;;;;;;;3.78;1.45;;;10.00;99.90;;;;;;5029165;28;37822;-76
2023/04/26 07:49:12;;;;;;;2.97;1.35;;;10.00;99.90;;;;;;5040174;28;37279;-76
2023/04/26 07:51:38;;;;;;;6.38;1.58;;;9.90;99.90;;;;;;5039468;28;37002;-76
2023/04/26 07:54:05;;;;;;;3.40;1.42;;;10.10;99.90;;;;;;5034683;28;38331;-75
2023/04/26 07:56:31;;;;;;;3.35;1.00;;;10.20;99.90;;;;;;5039547;28;39522;-76
2023/04/26 07:58:57;;;;;;;1.77;1.00;;;10.10;99.90;;;;;;5039588;28;37660;-75
2023/04/26 08:01:23;;;;;;;5.18;0.90;;;10.20;99.90;;;;;;5033932;28;36041;-75
2023/04/26 08:03:50;;;;;;;4.57;1.08;;;10.30;99.90;;;;;;5033300;28;38902;-75
2023/04/26 08:06:16;;;;;;;5.50;0.98;;;10.20;99.90;;;;;;5043904;28;38199;-75
2023/04/26 08:08:47;;;;;;;3.28;1.15;;;10.10;99.90;;;;;;5037327;28;36697;-74
2023/04/26 08:11:14;;;;;;;1.83;0.98;;;10.20;99.90;;;;;;5037211;28;36839;-75
2023/04/26 08:13:40;;;;;;;6.43;0.98;;;10.10;99.90;;;;;;5034889;28;39588;-76
2023/04/26 08:16:06;;;;;;;4.75;1.10;;;10.30;99.90;;;;;;5040504;28;37171;-74
2023/04/26 08:18:32;;;;;;;4.03;1.13;;;10.00;99.90;;;;;;5039917;28;37518;-77
2023/04/26 08:20:58;;;;;;;3.55;0.82;;;9.90;99.90;;;;;;5037594;28;37190;-75
2023/04/26 08:23:24;;;;;;;3.80;1.08;;;10.00;99.90;;;;;;5043396;28;37429;-75
2023/04/26 08:25:50;;;;;;;2.22;0.80;;;10.00;99.90;;;;;;5037568;28;39592;-74
2023/04/26 08:28:16;;;;;;;2.60;0.95;;;10.10;99.90;;;;;;5041988;28;38019;-75
2023/04/26 08:30:43;;;;;;;2.40;0.90;;;10.20;99.90;;;;;;5040063;28;35159;-74
2023/04/26 08:33:09;;;;;;;3.05;1.02;;;10.00;99.90;;;;;;5041966;28;39553;-74
2023/04/26 08:35:35;;;;;;;1.88;0.80;;;10.00;99.90;;;;;;5045231;28;39023;-75
2023/04/26 08:38:01;;;;;;;4.60;1.15;;;10.10;99.90;;;;;;5047115;28;36366;-75
2023/04/26 08:40:27;;;;;;;4.32;1.30;;;10.10;99.90;;;;;;5040068;28;35665;-75
2023/04/26 08:42:53;;;;;;;6.70;2.00;;;9.80;99.90;;;;;;5043211;28;39092;-76
2023/04/26 08:45:20;;;;;;;5.53;2.05;;;9.70;99.90;;;;;;5046776;28;37104;-76
2023/04/26 08:47:57;;;;;;;8.50;1.70;;;9.60;99.90;;;;;;5042942;28;38360;-75
2023/04/26 08:50:28;;;;;;;4.18;1.83;;;9.20;99.90;;;;;;5042828;28;37174;-76
2023/04/26 08:52:55;;;;;;;6.28;1.95;;;8.90;99.90;;;;;;5046834;28;36127;-75
2023/04/26 08:55:22;;;;;;;4.82;1.88;;;8.90;99.90;;;;;;5045552;28;39003;-75
2023/04/26 08:57:49;;;;;;;5.43;1.90;;;8.90;99.90;;;;;;5047603;28;38239;-75
2023/04/26 09:00:17;;;;;;;5.75;1.83;;;9.00;99.90;;;;;;5049684;28;38625;-75
2023/04/26 09:02:48;;;;;;;6.30;2.05;;;9.00;99.90;;;;;;5050125;28;38294;-76
2023/04/26 09:05:14;;;;;;;7.22;2.10;;;9.00;99.90;;;;;;5047885;28;38070;-75
2023/04/26 09:07:43;;;;;;;6.55;2.20;;;9.30;99.90;;;;;;5045114;28;38909;-75
2023/04/26 09:10:10;;;;;;;7.93;1.80;;;9.10;99.90;;;;;;5044570;28;37001;-76
2023/04/26 09:12:37;;;;;;;7.20;1.55;;;8.90;99.90;;;;;;5048778;28;38420;-75
2023/04/26 09:15:07;;;;;;;6.25;1.90;;;8.80;99.90;;;;;;5044311;28;36952;-75
2023/04/26 09:17:37;;;;;;;4.03;2.50;;;8.60;99.90;;;;;;5041928;28;49080;-76
2023/04/26 09:20:25;;;;;;;6.60;2.13;;;8.50;99.90;;;;;;5060914;28;36086;-75
2023/04/26 09:22:53;;;;;;;6.27;1.70;;;8.40;99.90;;;;;;5028929;28;48630;-75
2023/04/26 09:25:28;;;;;;;4.90;1.67;;;8.50;99.90;;;;;;5046330;28;37469;-75
2023/04/26 09:27:54;;;;;;;5.33;1.50;;;8.50;99.90;;;;;;5050241;28;37745;-75
2023/04/26 09:30:21;;;;;;;2.63;1.47;;;8.60;99.90;;;;;;5054411;28;39126;-75
2023/04/26 09:32:49;;;;;;;3.97;1.50;;;8.80;99.90;;;;;;5045882;28;39569;-75
2023/04/26 09:35:27;;;;;;;5.13;1.63;;;8.90;99.90;;;;;;5047654;28;39406;-76
2023/04/26 09:38:05;;;;;;;4.30;1.88;;;8.90;99.90;;;;;;5040529;28;37364;-76
2023/04/26 09:40:33;;;;;;;6.47;2.10;;;8.70;99.90;;;;;;5045028;28;48698;-75
2023/04/26 09:43:02;;;;;;;5.37;2.03;;;8.60;99.90;;;;;;5035336;28;39286;-76
2023/04/26 09:45:30;;;;;;;4.93;1.92;;;8.80;99.90;;;;;;5066383;28;47057;-76
2023/04/26 09:48:13;;;;;;;4.88;1.73;;;9.00;99.90;;;;;;5045023;28;38406;-76
2023/04/26 09:50:39;;;;;;;5.13;1.45;;;9.00;99.90;;;;;;5044760;28;47410;-75
2023/04/26 09:53:05;;;;;;;4.03;1.40;;;9.10;99.90;;;;;;5046581;28;38869;-76
2023/04/26 09:55:32;;;;;;;2.97;1.45;;;8.90;99.90;;;;;;5047394;28;37703;-75
2023/04/26 09:57:59;;;;;;;5.38;1.40;;;9.00;99.90;;;;;;5043598;28;37329;-75
2023/04/26 10:00:26;;;;;;;3.60;1.50;;;9.10;99.90;;;;;;5040280;28;36980;-75
2023/04/26 10:02:54;;;;;;;3.67;1.45;;;9.10;99.90;;;;;;5044807;28;38016;-76
2023/04/26 10:05:20;;;;;;;4.38;1.50;;;9.10;99.90;;;;;;5045401;28;38757;-76
2023/04/26 10:07:48;;;;;;;4.80;1.48;;;9.20;99.90;;;;;;5048431;28;37123;-76
2023/04/26 10:10:14;;;;;;;5.95;1.77;;;9.10;99.90;;;;;;5047339;28;38047;-76
2023/04/26 10:12:41;;;;;;;4.18;1.35;;;9.30;99.90;;;;;;5043724;28;37637;-78
2023/04/26 10:15:08;;;;;;;2.75;1.20;;;9.30;99.90;;;;;;5042842;28;37297;-76
2023/04/26 10:17:35;;;;;;;4.80;1.23;;;9.20;99.90;;;;;;5050566;28;38858;-76
2023/04/26 10:20:04;;;;;;;2.38;1.33;;;9.30;99.90;;;;;;5047533;28;37398;-77
2023/04/26 10:22:35;;;;;;;4.63;1.80;;;9.00;99.90;;;;;;5051741;28;49035;-76
2023/04/26 10:25:02;;;;;;;2.58;1.20;;;9.00;99.90;;;;;;5049771;28;38273;-77
2023/04/26 10:27:44;;;;;;;4.57;1.17;;;9.20;99.90;;;;;;5047398;28;38014;-75
2023/04/26 10:30:12;;;;;;;4.20;1.20;;;9.50;99.90;;;;;;5042572;28;36263;-75
2023/04/26 10:33:07;;;;;;;2.97;1.25;;;9.40;99.90;;;;;;5044943;28;38709;-75
2023/04/26 10:35:36;;;;;;;3.50;1.70;;;9.60;99.90;;;;;;5035945;28;46048;-76
2023/04/26 10:38:05;;;;;;;4.22;1.50;;;9.60;99.90;;;;;;5048179;28;37836;-75
2023/04/26 10:40:37;;;;;;;9.43;1.60;;;9.80;99.90;;;;;;5045448;28;38285;-76
2023/04/26 10:43:13;;;;;;;6.53;1.60;;;9.80;99.90;;;;;;5037890;28;38782;-75
2023/04/26 10:45:40;;;;;;;3.35;1.50;;;9.70;99.90;;;;;;5040718;28;37909;-75
2023/04/26 10:48:19;;;;;;;3.40;1.27;;;9.70;99.90;;;;;;5044693;28;36748;-76
2023/04/26 10:50:58;;;;;;;3.28;1.20;;;9.80;99.90;;;;;;5043702;28;37778;-76
2023/04/26 10:53:24;;;;;;;2.45;1.00;;;9.90;99.90;;;;;;5046249;28;38985;-76
2023/04/26 10:55:51;;;;;;;2.88;1.15;;;10.00;99.90;;;;;;5040909;28;38571;-75
2023/04/26 10:58:27;;;;;;;2.90;1.02;;;10.10;99.90;;;;;;5043871;28;36461;-75
2023/04/26 11:01:19;;;;;;;7.57;1.85;;;10.10;99.90;;;;;;5045774;28;36131;-76
2023/04/26 11:03:57;;;;;;;1.48;0.80;;;10.40;99.90;;;;;;5038052;28;48559;-75
2023/04/26 11:06:45;;;;;;;5.75;1.08;;;10.50;99.90;;;;;;5034602;28;37171;-76
2023/04/26 11:09:40;;;;;;;6.00;1.30;;;10.40;99.90;;;;;;5062165;28;37401;-75
2023/04/26 11:12:11;;;;;;;4.55;1.10;;;10.20;99.90;;;;;;5040259;28;37174;-78
2023/04/26 11:14:37;;;;;;;5.32;1.30;;;10.30;99.90;;;;;;5047710;28;38852;-79
2023/04/26 11:17:05;;;;;;;5.63;1.70;;;10.10;99.90;;;;;;5044981;28;37412;-80
2023/04/26 11:19:32;;;;;;;2.92;1.30;;;9.70;99.90;;;;;;5029064;28;36544;-78
2023/04/26 11:21:59;;;;;;;4.45;1.67;;;9.40;99.90;;;;;;5034452;28;35947;-79
2023/04/26 11:24:49;;;;;;;4.07;1.80;;;9.40;99.90;;;;;;5041025;28;37935;-78
2023/04/26 11:27:15;;;;;;;7.32;1.30;;;9.30;99.90;;;;;;5036068;28;37869;-78
2023/04/26 11:29:41;;;;;;;5.70;1.67;;;9.30;99.90;;;;;;5030482;28;36616;-78
2023/04/26 11:32:07;;;;;;;5.60;1.40;;;9.20;99.90;;;;;;5036545;28;36732;-76
2023/04/26 11:34:34;;;;;;;4.93;1.60;;;9.30;99.90;;;;;;5040104;28;38505;-76
2023/04/26 11:37:01;;;;;;;4.47;1.45;;;9.50;99.90;;;;;;5041453;28;38640;-76
2023/04/26 11:39:33;;;;;;;3.45;1.40;;;9.50;99.90;;;;;;5040435;28;46829;-77
2023/04/26 11:42:11;;;;;;;3.83;1.57;;;9.80;99.90;;;;;;5043721;28;35975;-77
2023/04/26 11:44:40;;;;;;;3.10;1.20;;;10.20;99.90;;;;;;5039598;28;47035;-74
2023/04/26 11:47:07;;;;;;;4.45;1.42;;;10.70;99.90;;;;;;5030388;28;37462;-76
2023/04/26 11:49:36;;;;;;;4.28;1.58;;;10.90;99.90;;;;;;5044457;28;38604;-76
2023/04/26 11:52:04;;;;;;;4.50;1.35;;;11.00;99.90;;;;;;5040926;28;36133;-73
2023/04/26 11:54:35;;;;;;;9.63;1.50;;;11.50;99.90;;;;;;5052714;28;39335;-74
2023/04/26 11:57:15;;;;;;;2.92;1.20;;;11.60;99.90;;;;;;5032919;28;37294;-74
2023/04/26 11:59:42;;;;;;;5.38;1.30;;;11.50;99.90;;;;;;5043199;28;37474;-75
2023/04/26 12:02:08;;;;;;;5.47;1.70;;;11.80;99.90;;;;;;5042507;28;38350;-75
2023/04/26 12:04:36;;;;;;;6.55;1.88;;;11.30;99.90;;;;;;5041410;28;38598;-74
2023/04/26 12:07:03;;;;;;;5.47;1.70;;;10.80;99.90;;;;;;5042803;28;38398;-74
2023/04/26 12:09:33;;;;;;;3.47;1.38;;;10.30;99.90;;;;;;5059292;28;36531;-77
2023/04/26 12:12:01;;;;;;;5.40;1.42;;;9.80;99.90;;;;;;5047552;28;36268;-76
2023/04/26 12:14:35;;;;;;;3.03;1.50;;;9.90;99.90;;;;;;5040302;28;48577;-76
2023/04/26 12:17:03;;;;;;;7.43;1.40;;;9.90;99.90;;;;;;5045710;28;39823;-76
2023/04/26 12:19:36;;;;;;;2.47;1.45;;;9.80;99.90;;;;;;5042343;28;36501;-74
2023/04/26 12:22:03;;;;;;;5.07;1.38;;;10.10;99.90;;;;;;5039209;28;36087;-77
2023/04/26 12:24:33;;;;;;;3.30;1.27;;;10.20;99.90;;;;;;5041296;28;39188;-75
2023/04/26 12:27:04;;;;;;;5.38;1.58;;;10.20;99.90;;;;;;5048737;28;38154;-76
2023/04/26 12:29:31;;;;;;;4.53;1.50;;;10.30;99.90;;;;;;5045946;28;48929;-75
2023/04/26 12:31:58;;;;;;;4.53;1.33;;;10.30;99.90;;;;;;5038253;28;38135;-75
2023/04/26 12:34:24;;;;;;;4.47;1.42;;;10.30;99.90;;;;;;5048186;28;38527;-75
2023/04/26 12:36:50;;;;;;;4.38;1.73;;;10.40;99.90;;;;;;5056635;28;37422;-75
2023/04/26 12:39:16;;;;;;;4.20;1.38;;;10.40;99.90;;;;;;5042388;28;38110;-75
2023/04/26 12:41:43;;;;;;;7.22;1.92;;;10.70;99.90;;;;;;5045378;28;35999;-75
2023/04/26 12:44:10;;;;;;;5.10;1.83;;;10.70;99.90;;;;;;5049323;28;37400;-75
2023/04/26 12:46:36;;;;;;;6.05;2.38;;;10.60;99.90;;;;;;5048898;28;37243;-76
2023/04/26 12:49:03;;;;;;;8.85;4.90;;;10.60;99.90;;;;;;5045990;28;37543;-75
2023/04/26 12:51:30;;;;;;;4.32;2.92;;;10.10;99.90;;;;;;5056884;28;37105;-78
2023/04/26 12:53:57;;;;;;;8.63;2.50;;;9.80;99.90;;;;;;5053211;28;40205;-75
2023/04/26 12:56:24;;;;;;;6.25;1.95;;;9.70;99.90;;;;;;5048525;28;37136;-77